Time;durP1;ratioP1;P1;durP2;ratioP2;P2;SDS_P1;SDS_P2;PMS_P1;PMS_P2;Temp;Humidity;BMP_temperature;BMP_pressure;BME280_temperature;BME280_humidity;BME280_pressure;Samples;Min_cycle;Max_cycle;Signal;HPM_P1;HPM_P2
2021/03/25 00:01:44;;;;;;;85.77;37.90;;;4.10;99.90;;;;;;5057503;28;20162;-95
2021/03/25 00:04:10;;;;;;;86.63;38.83;;;3.30;99.90;;;;;;5057570;28;20240;-94
2021/03/25 00:06:43;;;;;;;85.83;38.97;;;4.70;99.90;;;;;;5057466;28;20240;-96
2021/03/25 00:09:18;;;;;;;79.73;38.07;;;2.50;99.90;;;;;;5057526;28;20232;-95
2021/03/25 00:11:44;;;;;;;83.23;39.70;;;3.40;99.90;;;;;;5057557;28;20164;-95
2021/03/25 00:14:13;;;;;;;79.20;38.10;;;3.30;99.90;;;;;;5057762;28;20228;-95
2021/03/25 00:16:39;;;;;;;91.80;44.37;;;4.00;99.90;;;;;;5045815;28;20164;-94
2021/03/25 00:19:06;;;;;;;96.10;42.50;;;3.70;99.90;;;;;;5061677;28;20157;-95
2021/03/25 00:21:32;;;;;;;92.53;43.37;;;3.50;99.90;;;;;;5061715;28;20188;-95
2021/03/25 00:23:58;;;;;;;117.20;50.00;;;3.50;99.90;;;;;;5061459;28;20164;-95
2021/03/25 00:26:24;;;;;;;102.23;46.07;;;3.60;99.90;;;;;;5061690;28;20164;-96
2021/03/25 00:28:49;;;;;;;88.63;44.77;;;3.60;99.90;;;;;;5045177;28;20173;-94
2021/03/25 00:31:15;;;;;;;100.00;44.40;;;3.60;99.90;;;;;;5045093;28;20216;-95
2021/03/25 00:33:44;;;;;;;100.30;46.37;;;4.20;99.90;;;;;;5038645;28;20227;-96
2021/03/25 00:36:09;;;;;;;103.80;46.30;;;2.60;99.90;;;;;;5020939;28;20181;-96
2021/03/25 00:38:35;;;;;;;101.83;44.97;;;3.20;99.90;;;;;;5037452;28;20181;-96
2021/03/25 00:41:04;;;;;;;110.27;47.17;;;3.30;99.90;;;;;;5036774;28;20181;-95
2021/03/25 00:43:29;;;;;;;99.73;47.33;;;3.40;99.90;;;;;;5037241;28;20590;-96
2021/03/25 00:45:55;;;;;;;108.10;48.83;;;3.50;99.90;;;;;;5037203;28;20181;-95
2021/03/25 00:48:23;;;;;;;117.43;49.80;;;2.60;99.90;;;;;;5020074;28;20554;-96
2021/03/25 00:50:54;;;;;;;116.50;50.50;;;3.20;99.90;;;;;;5036509;28;20690;-96
2021/03/25 00:53:26;;;;;;;107.60;49.30;;;3.20;99.90;;;;;;5037553;28;20188;-96
2021/03/25 00:55:52;;;;;;;107.87;48.97;;;3.30;99.90;;;;;;5036291;28;20181;-95
2021/03/25 00:58:18;;;;;;;104.50;45.90;;;3.20;99.90;;;;;;5036173;28;20177;-95
2021/03/25 01:00:46;;;;;;;107.37;46.77;;;3.30;99.90;;;;;;5036336;28;20182;-95
2021/03/25 01:03:14;;;;;;;107.90;48.80;;;3.40;99.90;;;;;;5036412;28;20211;-96
2021/03/25 01:05:40;;;;;;;109.07;49.27;;;3.60;99.90;;;;;;5036122;28;20177;-96
2021/03/25 01:08:07;;;;;;;103.50;47.60;;;4.20;99.90;;;;;;5036307;28;20651;-95
2021/03/25 01:10:41;;;;;;;119.30;49.33;;;3.50;99.90;;;;;;5035805;28;20212;-95
2021/03/25 01:13:30;;;;;;;101.00;47.40;;;3.50;99.90;;;;;;5035850;28;20188;-95
2021/03/25 01:15:57;;;;;;;112.30;47.87;;;3.30;99.90;;;;;;5036052;28;20180;-95
2021/03/25 01:18:24;;;;;;;104.83;46.13;;;3.20;99.90;;;;;;5035451;28;20308;-95
2021/03/25 01:20:50;;;;;;;96.43;43.27;;;3.40;99.90;;;;;;5035779;28;20188;-94
2021/03/25 01:23:16;;;;;;;91.63;41.27;;;3.50;99.90;;;;;;5035212;28;20184;-95
2021/03/25 01:25:43;;;;;;;84.77;42.63;;;3.50;99.90;;;;;;5035056;28;20209;-94
2021/03/25 01:28:10;;;;;;;89.87;43.23;;;3.30;99.90;;;;;;5035134;28;20205;-95
2021/03/25 01:30:37;;;;;;;89.83;41.07;;;3.60;99.90;;;;;;5035676;28;20218;-95
2021/03/25 01:33:07;;;;;;;94.67;42.60;;;3.30;99.90;;;;;;5035446;28;20176;-95
2021/03/25 01:35:35;;;;;;;88.33;42.27;;;3.60;99.90;;;;;;5035427;28;20178;-95
2021/03/25 01:38:01;;;;;;;88.93;41.27;;;4.20;99.90;;;;;;5035576;28;20629;-95
2021/03/25 01:40:31;;;;;;;84.87;38.70;;;3.40;99.90;;;;;;5035302;28;20192;-95
2021/03/25 01:43:09;;;;;;;83.83;39.00;;;3.80;99.90;;;;;;5035383;28;20180;-95
2021/03/25 01:45:55;;;;;;;90.80;42.27;;;4.60;99.90;;;;;;5035398;28;20176;-95
2021/03/25 01:48:30;;;;;;;99.60;41.63;;;3.70;99.90;;;;;;5035173;28;20185;-95
2021/03/25 01:51:38;;;;;;;82.80;38.93;;;3.50;99.90;;;;;;5034943;28;20208;-96
2021/03/25 01:54:10;;;;;;;83.53;39.60;;;3.60;99.90;;;;;;5034997;28;20188;-95
2021/03/25 01:56:54;;;;;;;84.20;38.30;;;3.60;99.90;;;;;;5035236;28;20678;-95
2021/03/25 01:59:38;;;;;;;83.70;37.20;;;3.60;99.90;;;;;;5036280;28;20656;-95
2021/03/25 02:02:13;;;;;;;90.93;42.87;;;3.70;99.90;;;;;;5035089;28;20181;-95
2021/03/25 02:04:59;;;;;;;107.70;48.90;;;3.70;99.90;;;;;;5035013;28;20684;-95
2021/03/25 02:07:43;;;;;;;125.43;55.30;;;3.80;99.90;;;;;;5034717;28;20228;-96
2021/03/25 02:10:22;;;;;;;137.90;59.93;;;3.90;99.90;;;;;;5035126;28;20209;-95
2021/03/25 02:13:04;;;;;;;135.70;58.90;;;3.60;99.90;;;;;;5035210;28;20209;-95
2021/03/25 02:16:00;;;;;;;134.17;59.43;;;4.30;99.90;;;;;;5034813;28;20182;-95
2021/03/25 02:18:38;;;;;;;132.97;57.57;;;3.60;99.90;;;;;;5034383;28;20209;-95
2021/03/25 02:21:30;;;;;;;125.30;56.27;;;2.10;99.90;;;;;;5035041;28;20199;-95
2021/03/25 02:24:07;;;;;;;142.50;58.57;;;3.60;99.90;;;;;;5035859;28;20181;-95
2021/03/25 02:27:05;;;;;;;123.40;53.40;;;3.80;99.90;;;;;;5034468;28;20176;-94
2021/03/25 02:29:51;;;;;;;86.87;36.77;;;3.90;99.90;;;;;;4982214;28;20196;-95
2021/03/25 02:32:39;;;;;;;77.97;36.67;;;3.80;99.90;;;;;;5034528;28;20207;-96
2021/03/25 02:35:17;;;;;;;82.83;36.47;;;3.70;99.90;;;;;;5034323;28;20182;-95
2021/03/25 02:37:46;;;;;;;78.73;34.90;;;3.60;99.90;;;;;;5034445;28;20180;-95
2021/03/25 02:40:35;;;;;;;88.33;40.30;;;3.70;99.90;;;;;;5034376;28;20192;-95
2021/03/25 02:43:07;;;;;;;82.80;39.27;;;3.80;99.90;;;;;;5033833;28;20190;-95
2021/03/25 02:45:38;;;;;;;86.53;39.07;;;5.20;99.90;;;;;;5035298;28;20181;-95
2021/03/25 02:48:12;;;;;;;85.20;39.73;;;3.80;99.90;;;;;;5034319;28;20184;-95
2021/03/25 02:50:39;;;;;;;79.27;40.63;;;4.00;99.90;;;;;;5034915;28;20201;-96
2021/03/25 02:53:22;;;;;;;85.40;37.40;;;3.90;99.90;;;;;;5034113;28;20191;-95
2021/03/25 02:55:48;;;;;;;88.07;40.33;;;3.80;99.90;;;;;;5034404;28;20208;-94
2021/03/25 02:58:22;;;;;;;78.67;38.60;;;4.20;99.90;;;;;;5035098;28;20271;-95
2021/03/25 03:00:59;;;;;;;86.37;39.83;;;4.80;99.90;;;;;;5034959;28;20202;-95
2021/03/25 03:03:32;;;;;;;88.90;40.50;;;3.70;99.90;;;;;;5033579;28;20228;-96
2021/03/25 03:06:00;;;;;;;87.93;40.67;;;3.80;99.90;;;;;;5033787;28;20226;-95
2021/03/25 03:08:35;;;;;;;87.10;39.83;;;3.80;99.90;;;;;;5034773;28;20265;-95
2021/03/25 03:11:11;;;;;;;90.23;41.30;;;3.70;99.90;;;;;;5033869;28;20209;-96
2021/03/25 03:13:41;;;;;;;84.53;40.70;;;3.60;99.90;;;;;;5033736;28;20173;-95
2021/03/25 03:16:36;;;;;;;89.10;40.93;;;3.80;99.90;;;;;;5033841;28;20180;-95
2021/03/25 03:19:22;;;;;;;95.83;41.20;;;3.60;99.90;;;;;;5020226;28;20184;-95
2021/03/25 03:22:03;;;;;;;90.80;40.57;;;3.60;99.90;;;;;;5033352;28;20189;-94
2021/03/25 03:24:30;;;;;;;84.93;40.87;;;3.80;99.90;;;;;;5034314;28;20157;-94
2021/03/25 03:27:03;;;;;;;90.20;41.57;;;4.20;99.90;;;;;;5033624;28;20273;-95
2021/03/25 03:29:33;;;;;;;84.47;40.67;;;3.70;99.90;;;;;;5033309;28;20177;-94
2021/03/25 03:32:04;;;;;;;89.57;41.13;;;3.50;99.90;;;;;;5033028;28;20587;-95
2021/03/25 03:34:37;;;;;;;85.17;40.40;;;3.50;99.90;;;;;;5033110;28;20220;-96
2021/03/25 03:37:10;;;;;;;91.93;40.37;;;3.70;99.90;;;;;;5034446;28;20178;-94
2021/03/25 03:39:37;;;;;;;92.80;41.63;;;3.50;99.90;;;;;;5033834;28;20257;-94
2021/03/25 03:42:11;;;;;;;89.20;40.10;;;4.40;99.90;;;;;;5032874;28;20190;-95
2021/03/25 03:44:42;;;;;;;90.37;41.00;;;3.50;99.90;;;;;;5033075;28;20212;-94
2021/03/25 03:47:09;;;;;;;86.20;39.57;;;3.60;99.90;;;;;;5033060;28;20181;-95
2021/03/25 03:49:51;;;;;;;83.47;39.17;;;5.10;99.90;;;;;;5015453;28;20184;-93
2021/03/25 03:52:32;;;;;;;87.87;40.97;;;3.60;99.90;;;;;;5033340;28;20317;-95
2021/03/25 03:55:00;;;;;;;88.17;38.93;;;1.80;99.90;;;;;;5032812;28;20704;-94
2021/03/25 03:57:38;;;;;;;91.00;41.73;;;4.40;99.90;;;;;;5032345;28;20617;-92
2021/03/25 04:00:20;;;;;;;85.60;40.80;;;3.60;99.90;;;;;;5032216;28;20192;-92
2021/03/25 04:02:49;;;;;;;91.00;40.60;;;4.00;99.90;;;;;;5032131;28;20218;-94
2021/03/25 04:05:29;;;;;;;88.00;39.77;;;3.60;99.90;;;;;;5032466;28;20211;-94
2021/03/25 04:08:15;;;;;;;84.23;39.10;;;3.70;99.90;;;;;;5032695;28;20206;-94
2021/03/25 04:11:18;;;;;;;91.77;42.13;;;4.10;99.90;;;;;;5031447;28;20315;-93
2021/03/25 04:13:49;;;;;;;93.13;40.37;;;3.80;99.90;;;;;;5022532;28;20342;-94
2021/03/25 04:16:20;;;;;;;84.43;39.87;;;4.00;99.90;;;;;;5032583;28;20182;-94
2021/03/25 04:19:08;;;;;;;85.70;40.87;;;4.00;99.90;;;;;;5032183;28;20629;-93
2021/03/25 04:21:45;;;;;;;90.63;41.10;;;3.70;99.90;;;;;;5032486;28;20192;-94
2021/03/25 04:24:17;;;;;;;93.30;40.43;;;3.60;99.90;;;;;;5033496;28;20255;-94
2021/03/25 04:26:46;;;;;;;87.63;39.00;;;4.90;99.90;;;;;;5032173;28;20168;-92
2021/03/25 04:29:18;;;;;;;86.87;40.07;;;3.80;99.90;;;;;;5031764;28;20178;-91
2021/03/25 04:31:44;;;;;;;95.53;42.10;;;3.90;99.90;;;;;;5031446;28;20193;-92
2021/03/25 04:34:11;;;;;;;84.07;39.03;;;3.80;99.90;;;;;;5031557;28;20192;-93
2021/03/25 04:36:40;;;;;;;95.03;39.60;;;4.40;99.90;;;;;;5032524;28;20180;-92
2021/03/25 04:39:07;;;;;;;89.77;41.07;;;4.90;99.90;;;;;;5030262;28;20248;-92
2021/03/25 04:41:36;;;;;;;83.83;40.07;;;3.80;99.90;;;;;;5009150;28;20213;-91
2021/03/25 04:44:05;;;;;;;89.37;40.47;;;3.70;99.90;;;;;;5026643;28;20177;-90
2021/03/25 04:46:53;;;;;;;99.37;45.73;;;3.70;99.90;;;;;;5028264;28;20283;-91
2021/03/25 04:49:43;;;;;;;89.67;42.60;;;3.90;99.90;;;;;;5029479;28;20192;-89
2021/03/25 04:52:20;;;;;;;101.20;40.23;;;3.90;99.90;;;;;;5026330;28;20292;-90
2021/03/25 04:54:46;;;;;;;96.13;42.13;;;3.70;99.90;;;;;;5029580;28;20188;-91
2021/03/25 04:57:31;;;;;;;91.57;43.00;;;3.70;99.90;;;;;;5029304;28;20713;-91
2021/03/25 05:00:01;;;;;;;89.83;41.87;;;4.00;99.90;;;;;;5027564;28;20214;-89
2021/03/25 05:02:29;;;;;;;100.20;44.70;;;5.00;99.90;;;;;;5031496;28;20178;-91
2021/03/25 05:04:56;;;;;;;92.47;42.17;;;3.80;99.90;;;;;;5033008;28;20663;-93
2021/03/25 05:07:27;;;;;;;101.50;42.33;;;4.90;99.90;;;;;;5032031;28;20232;-93
2021/03/25 05:09:55;;;;;;;97.30;40.57;;;3.80;99.90;;;;;;5031143;28;20243;-92
2021/03/25 05:12:21;;;;;;;87.03;40.63;;;3.90;99.90;;;;;;5030106;28;20534;-94
2021/03/25 05:14:51;;;;;;;92.67;41.23;;;3.80;99.90;;;;;;5016140;28;20220;-93
2021/03/25 05:17:36;;;;;;;92.07;39.50;;;4.30;99.90;;;;;;5034092;28;20204;-93
2021/03/25 05:20:26;;;;;;;86.50;39.77;;;3.90;99.90;;;;;;5033965;28;20192;-91
2021/03/25 05:23:27;;;;;;;86.70;38.97;;;3.80;99.90;;;;;;5034170;28;20217;-92
2021/03/25 05:25:54;;;;;;;82.83;37.10;;;4.10;99.90;;;;;;5027896;28;20268;-90
2021/03/25 05:28:30;;;;;;;81.77;38.10;;;5.20;99.90;;;;;;5032956;28;20196;-89
2021/03/25 05:30:57;;;;;;;79.30;37.13;;;3.90;99.90;;;;;;5033748;28;20218;-91
2021/03/25 05:33:30;;;;;;;76.97;37.63;;;4.50;99.90;;;;;;5033712;28;20272;-92
2021/03/25 05:36:04;;;;;;;83.63;37.50;;;5.10;99.90;;;;;;5032855;28;20183;-90
2021/03/25 05:38:30;;;;;;;71.43;34.83;;;4.00;99.90;;;;;;5033935;28;20187;-91
2021/03/25 05:41:07;;;;;;;74.37;37.13;;;4.00;99.90;;;;;;5032884;28;20605;-89
2021/03/25 05:43:55;;;;;;;81.77;38.40;;;4.10;99.90;;;;;;5032064;28;20194;-89
2021/03/25 05:46:23;;;;;;;84.10;37.53;;;4.10;99.90;;;;;;5027067;28;20186;-91
2021/03/25 05:49:11;;;;;;;80.63;36.10;;;4.20;99.90;;;;;;5030997;28;20245;-89
2021/03/25 05:51:51;;;;;;;84.30;38.30;;;4.20;99.90;;;;;;5032850;28;20608;-89
2021/03/25 05:54:50;;;;;;;88.13;38.97;;;3.60;99.90;;;;;;5023620;28;20187;-88
2021/03/25 05:57:45;;;;;;;82.47;39.33;;;4.30;99.90;;;;;;5028369;28;20657;-89
2021/03/25 06:00:20;;;;;;;91.27;39.60;;;4.50;99.90;;;;;;5031717;28;20247;-88
2021/03/25 06:03:09;;;;;;;78.13;35.80;;;4.50;99.90;;;;;;5027381;28;20176;-86
2021/03/25 06:05:35;;;;;;;89.87;39.43;;;4.40;99.90;;;;;;5030565;28;20214;-88
2021/03/25 06:08:38;;;;;;;90.03;39.57;;;4.40;99.90;;;;;;5018135;28;20221;-90
2021/03/25 06:11:31;;;;;;;80.10;36.80;;;4.40;99.90;;;;;;5037113;28;20223;-91
2021/03/25 06:14:07;;;;;;;89.83;40.50;;;4.80;99.90;;;;;;5034150;28;20172;-88
2021/03/25 06:16:51;;;;;;;86.70;37.77;;;4.60;99.90;;;;;;5030604;28;20188;-88
2021/03/25 06:19:35;;;;;;;74.27;34.53;;;5.00;99.90;;;;;;5042932;28;20222;-85
2021/03/25 06:22:46;;;;;;;83.40;36.50;;;4.70;99.90;;;;;;5054919;28;20164;-86
2021/03/25 06:25:35;;;;;;;79.03;35.93;;;4.70;99.90;;;;;;5020316;28;20190;-85
2021/03/25 06:28:44;;;;;;;76.07;33.50;;;4.80;99.90;;;;;;5040098;28;20678;-89
2021/03/25 06:31:22;;;;;;;80.93;37.73;;;6.50;99.90;;;;;;4981754;28;20218;-91
2021/03/25 06:33:52;;;;;;;80.37;36.07;;;4.80;99.90;;;;;;4971587;28;20170;-88
2021/03/25 06:36:20;;;;;;;86.13;38.97;;;5.00;99.90;;;;;;5030847;28;20275;-87
2021/03/25 06:38:56;;;;;;;83.27;37.20;;;4.80;99.90;;;;;;5055361;28;20178;-87
2021/03/25 06:41:28;;;;;;;72.60;35.50;;;4.50;99.90;;;;;;5050016;28;20184;-89
2021/03/25 06:44:17;;;;;;;76.33;34.50;;;5.30;99.90;;;;;;5033244;28;20187;-90
2021/03/25 06:46:46;;;;;;;73.43;35.70;;;4.90;99.90;;;;;;5033110;28;20643;-89
2021/03/25 06:49:17;;;;;;;72.03;33.43;;;5.00;99.90;;;;;;5016255;28;20194;-89
2021/03/25 06:51:43;;;;;;;71.57;32.43;;;5.10;99.90;;;;;;5032798;28;20234;-89
2021/03/25 06:54:10;;;;;;;77.63;35.07;;;5.10;99.90;;;;;;5028149;28;20223;-89
2021/03/25 06:56:45;;;;;;;73.33;32.53;;;5.10;99.90;;;;;;5034054;28;20215;-89
2021/03/25 06:59:36;;;;;;;69.60;31.90;;;5.30;99.90;;;;;;5033216;28;20197;-89
2021/03/25 07:02:26;;;;;;;66.47;31.30;;;5.30;99.90;;;;;;5032799;28;20187;-89
2021/03/25 07:04:56;;;;;;;74.13;32.83;;;5.40;99.90;;;;;;5027774;28;20211;-91
2021/03/25 07:07:29;;;;;;;75.73;32.97;;;5.50;99.90;;;;;;5026293;28;20245;-87
2021/03/25 07:09:56;;;;;;;69.90;33.20;;;5.60;99.90;;;;;;5012897;28;20255;-89
2021/03/25 07:12:24;;;;;;;69.10;33.43;;;5.70;99.90;;;;;;4997067;28;20545;-89
2021/03/25 07:14:51;;;;;;;67.27;32.37;;;5.70;99.90;;;;;;5026044;28;20188;-88
2021/03/25 07:17:39;;;;;;;76.20;33.73;;;5.70;99.90;;;;;;5031409;28;20192;-88
2021/03/25 07:20:28;;;;;;;78.10;34.87;;;5.70;99.90;;;;;;5031189;28;20263;-88
2021/03/25 07:23:06;;;;;;;69.57;32.67;;;5.60;99.90;;;;;;5012693;28;20216;-89
2021/03/25 07:25:34;;;;;;;69.00;33.77;;;5.60;99.90;;;;;;5013367;28;20625;-88
2021/03/25 07:28:02;;;;;;;68.27;31.87;;;5.70;99.90;;;;;;5013650;28;20188;-91
2021/03/25 07:30:43;;;;;;;65.97;31.17;;;5.70;99.90;;;;;;5014698;28;20645;-92
2021/03/25 07:33:13;;;;;;;64.03;30.80;;;5.80;99.90;;;;;;5019386;28;20199;-89
2021/03/25 07:35:41;;;;;;;70.90;33.13;;;5.90;99.90;;;;;;5032126;28;20705;-90
2021/03/25 07:38:39;;;;;;;70.73;31.00;;;5.90;99.90;;;;;;5020242;28;20200;-90
2021/03/25 07:41:19;;;;;;;64.90;30.33;;;5.90;99.90;;;;;;5018320;28;20187;-90
2021/03/25 07:43:58;;;;;;;69.17;32.03;;;6.10;99.90;;;;;;5013595;28;20260;-90
2021/03/25 07:46:33;;;;;;;64.63;29.50;;;6.10;99.90;;;;;;5013474;28;20181;-90
2021/03/25 07:49:09;;;;;;;75.03;29.97;;;6.10;99.90;;;;;;5017923;28;20665;-91
2021/03/25 07:51:56;;;;;;;68.50;28.77;;;6.20;99.90;;;;;;5031783;28;20224;-91
2021/03/25 07:54:32;;;;;;;62.67;29.70;;;6.30;99.90;;;;;;5031902;28;20239;-90
2021/03/25 07:57:16;;;;;;;60.50;26.70;;;6.20;99.90;;;;;;5031598;28;20168;-90
2021/03/25 07:59:58;;;;;;;61.13;29.20;;;6.30;99.90;;;;;;5033166;28;20245;-90
2021/03/25 08:02:44;;;;;;;62.03;27.00;;;6.40;99.90;;;;;;5031803;28;20180;-89
2021/03/25 08:05:24;;;;;;;62.50;28.20;;;6.60;99.90;;;;;;5032927;28;20271;-89
2021/03/25 08:07:53;;;;;;;69.00;27.87;;;6.50;99.90;;;;;;5031299;28;20258;-91
2021/03/25 08:10:33;;;;;;;63.93;27.13;;;6.50;99.90;;;;;;5031753;28;20228;-90
2021/03/25 08:13:24;;;;;;;56.00;25.93;;;6.60;99.90;;;;;;5031700;28;20172;-90
2021/03/25 08:16:08;;;;;;;68.77;27.57;;;6.70;99.90;;;;;;5031546;28;20176;-90
2021/03/25 08:18:47;;;;;;;71.40;28.73;;;6.70;99.90;;;;;;5032967;28;20278;-89
2021/03/25 08:21:30;;;;;;;58.00;26.40;;;6.70;99.90;;;;;;5036585;28;20178;-90
2021/03/25 08:24:06;;;;;;;71.77;29.00;;;6.90;99.90;;;;;;5029279;28;20181;-90
2021/03/25 08:26:39;;;;;;;60.67;27.03;;;7.00;99.90;;;;;;5016185;28;20255;-90
2021/03/25 08:29:14;;;;;;;56.83;25.10;;;7.10;99.90;;;;;;5014036;28;20181;-90
2021/03/25 08:32:19;;;;;;;55.40;23.97;;;7.20;99.90;;;;;;5014967;28;20279;-89
2021/03/25 08:35:12;;;;;;;55.90;24.13;;;7.10;99.90;;;;;;4982639;28;20196;-90
2021/03/25 08:37:43;;;;;;;47.50;20.27;;;7.00;99.90;;;;;;5017341;28;20177;-90
2021/03/25 08:40:20;;;;;;;50.77;21.23;;;6.90;99.90;;;;;;5017509;28;20246;-90
2021/03/25 08:42:51;;;;;;;51.57;23.47;;;7.00;99.90;;;;;;5016154;28;20216;-90
2021/03/25 08:45:32;;;;;;;55.60;23.33;;;7.00;99.90;;;;;;5018186;28;20261;-90
2021/03/25 08:48:09;;;;;;;49.17;24.47;;;7.20;99.90;;;;;;5020213;28;20315;-90
2021/03/25 08:50:44;;;;;;;51.33;23.67;;;7.00;99.90;;;;;;5017087;28;20212;-91
2021/03/25 08:53:41;;;;;;;50.43;24.83;;;7.00;99.90;;;;;;5018307;28;20659;-90
2021/03/25 08:56:41;;;;;;;53.60;23.60;;;7.00;99.90;;;;;;4987045;28;20185;-91
2021/03/25 08:59:15;;;;;;;50.97;24.33;;;7.00;99.90;;;;;;5017687;28;20188;-89
2021/03/25 09:02:02;;;;;;;50.73;25.70;;;7.10;99.90;;;;;;5022449;28;20177;-89
2021/03/25 09:04:34;;;;;;;54.57;25.30;;;7.00;99.90;;;;;;5013228;28;20230;-90
2021/03/25 09:07:03;;;;;;;55.33;24.70;;;6.90;99.90;;;;;;5037391;28;20251;-90
2021/03/25 09:09:35;;;;;;;48.00;22.03;;;6.90;99.90;;;;;;5037755;28;20189;-89
2021/03/25 09:12:31;;;;;;;58.80;26.37;;;6.90;99.90;;;;;;5037026;28;20247;-89
2021/03/25 09:14:59;;;;;;;59.57;26.40;;;6.90;99.90;;;;;;5039065;28;20272;-90
2021/03/25 09:17:33;;;;;;;60.70;26.50;;;6.90;99.90;;;;;;5038648;28;20659;-90
2021/03/25 09:19:59;;;;;;;58.33;26.13;;;7.00;99.90;;;;;;5037617;28;20652;-91
2021/03/25 09:22:43;;;;;;;55.73;27.20;;;7.00;99.90;;;;;;5037893;28;20172;-90
2021/03/25 09:25:31;;;;;;;53.20;26.97;;;7.00;99.90;;;;;;5037927;28;20716;-89
2021/03/25 09:28:20;;;;;;;59.47;27.07;;;7.00;99.90;;;;;;5039807;28;20191;-90
2021/03/25 09:31:12;;;;;;;55.17;27.57;;;7.10;99.90;;;;;;5037056;28;20279;-89
2021/03/25 09:33:58;;;;;;;63.40;30.90;;;7.00;99.90;;;;;;5030720;28;20188;-90
2021/03/25 09:36:23;;;;;;;67.70;31.30;;;7.00;99.90;;;;;;5038240;28;20223;-89
2021/03/25 09:39:32;;;;;;;63.03;30.47;;;7.10;99.90;;;;;;5038191;28;20169;-89
2021/03/25 09:42:05;;;;;;;86.13;40.13;;;7.00;99.90;;;;;;5030084;28;20192;-90
2021/03/25 09:44:36;;;;;;;76.07;38.13;;;7.00;99.90;;;;;;5034409;28;20184;-89
2021/03/25 09:47:02;;;;;;;73.57;33.90;;;6.80;99.90;;;;;;5033826;28;20180;-91
2021/03/25 09:49:58;;;;;;;66.93;29.73;;;6.80;99.90;;;;;;5036151;28;20671;-92
2021/03/25 09:52:40;;;;;;;59.90;27.77;;;6.80;99.90;;;;;;5035218;28;20253;-90
2021/03/25 09:55:06;;;;;;;63.80;31.00;;;6.80;99.90;;;;;;5034689;28;20184;-91
2021/03/25 09:57:31;;;;;;;66.57;31.63;;;4.70;99.90;;;;;;5034684;28;20208;-90
2021/03/25 09:59:59;;;;;;;62.97;29.97;;;6.80;99.90;;;;;;5035001;28;20196;-90
2021/03/25 10:02:44;;;;;;;70.00;30.23;;;6.90;99.90;;;;;;5036686;28;20192;-91
2021/03/25 10:05:30;;;;;;;63.00;28.23;;;6.90;99.90;;;;;;5035778;28;20181;-92
2021/03/25 10:08:10;;;;;;;63.70;30.87;;;7.10;99.90;;;;;;5029502;28;20280;-90
2021/03/25 10:10:47;;;;;;;68.80;33.03;;;7.00;99.90;;;;;;5025206;28;20204;-90
2021/03/25 10:13:16;;;;;;;63.10;28.67;;;6.80;99.90;;;;;;5031131;28;20177;-91
2021/03/25 10:15:50;;;;;;;62.67;26.30;;;6.90;99.90;;;;;;5031351;28;20577;-92
2021/03/25 10:18:16;;;;;;;61.80;26.67;;;6.90;99.90;;;;;;5029456;28;20525;-90
2021/03/25 10:20:49;;;;;;;62.73;29.97;;;7.00;99.90;;;;;;5022947;28;20185;-90
2021/03/25 10:23:29;;;;;;;64.27;29.20;;;7.00;99.90;;;;;;5027918;28;20180;-89
2021/03/25 10:26:01;;;;;;;62.40;28.63;;;6.90;99.90;;;;;;5025878;28;20180;-92
2021/03/25 10:28:30;;;;;;;67.10;29.70;;;6.90;99.90;;;;;;5032240;28;20199;-89
2021/03/25 10:31:20;;;;;;;53.37;26.07;;;7.00;99.90;;;;;;5025384;28;20252;-90
2021/03/25 10:33:48;;;;;;;56.47;26.53;;;7.10;99.90;;;;;;5031948;28;20168;-86
2021/03/25 10:36:21;;;;;;;62.93;29.90;;;7.20;99.90;;;;;;5044235;28;20200;-89
2021/03/25 10:38:51;;;;;;;64.17;32.17;;;7.30;99.90;;;;;;5027904;28;20188;-91
2021/03/25 10:41:20;;;;;;;63.07;29.50;;;7.20;99.90;;;;;;5033791;28;20633;-96
2021/03/25 10:43:53;;;;;;;55.87;28.77;;;7.20;99.90;;;;;;5033696;28;20181;-90
2021/03/25 10:46:33;;;;;;;62.73;28.03;;;7.00;99.90;;;;;;5034329;28;20184;-91
2021/03/25 10:49:09;;;;;;;64.73;25.70;;;7.10;99.90;;;;;;5039475;28;20172;-89
2021/03/25 10:51:41;;;;;;;60.03;28.57;;;7.30;99.90;;;;;;5029148;28;20227;-91
2021/03/25 10:54:23;;;;;;;66.17;28.10;;;7.40;99.90;;;;;;5034165;28;20431;-92
2021/03/25 10:56:57;;;;;;;67.00;29.30;;;7.50;99.90;;;;;;5032976;28;20730;-92
2021/03/25 10:59:24;;;;;;;61.43;26.47;;;7.40;99.90;;;;;;5037109;28;20172;-90
2021/03/25 11:01:54;;;;;;;64.13;30.00;;;7.50;99.90;;;;;;5045149;28;20180;-91
2021/03/25 11:04:21;;;;;;;59.57;27.00;;;7.50;99.90;;;;;;5037734;28;20208;-94
2021/03/25 11:06:46;;;;;;;61.47;28.83;;;7.30;99.90;;;;;;5031298;28;20264;-93
2021/03/25 11:09:28;;;;;;;58.03;26.87;;;7.20;99.90;;;;;;5016224;28;20184;-92
2021/03/25 11:11:59;;;;;;;59.13;26.53;;;7.10;99.90;;;;;;5029443;28;20243;-90
2021/03/25 11:14:48;;;;;;;66.20;29.93;;;7.20;99.90;;;;;;5023465;28;20714;-92
2021/03/25 11:17:33;;;;;;;61.43;27.83;;;7.20;99.90;;;;;;5031598;28;20192;-93
2021/03/25 11:20:04;;;;;;;54.70;26.33;;;7.20;99.90;;;;;;5028215;28;20184;-92
2021/03/25 11:22:31;;;;;;;60.90;26.80;;;7.30;99.90;;;;;;5036869;28;20187;-93
2021/03/25 11:25:03;;;;;;;59.47;26.90;;;7.30;99.90;;;;;;5026903;28;20239;-91
2021/03/25 11:27:29;;;;;;;60.53;25.80;;;7.30;99.90;;;;;;5016039;28;20661;-91
2021/03/25 11:30:02;;;;;;;68.13;29.87;;;7.40;99.90;;;;;;5023470;28;20215;-91
2021/03/25 11:32:38;;;;;;;65.50;29.40;;;7.20;99.90;;;;;;5034776;28;20186;-93
2021/03/25 11:35:40;;;;;;;58.40;27.33;;;7.20;99.90;;;;;;5031619;28;20188;-96
2021/03/25 11:38:32;;;;;;;61.40;28.13;;;7.20;99.90;;;;;;4996624;28;20308;-94
2021/03/25 11:41:06;;;;;;;68.37;28.67;;;7.20;99.90;;;;;;5024316;28;20557;-92
2021/03/25 11:43:49;;;;;;;63.27;27.37;;;7.20;99.90;;;;;;5023660;28;20180;-91
2021/03/25 11:46:46;;;;;;;61.33;28.70;;;7.40;99.90;;;;;;5025377;28;20172;-91
2021/03/25 11:49:21;;;;;;;59.20;27.20;;;7.30;99.90;;;;;;5024180;28;20530;-90
2021/03/25 11:52:00;;;;;;;60.13;28.63;;;7.20;99.90;;;;;;5022696;28;20215;-90
2021/03/25 11:54:37;;;;;;;62.00;28.93;;;7.30;99.90;;;;;;5033483;28;20191;-91
2021/03/25 11:57:20;;;;;;;57.93;27.83;;;7.30;99.90;;;;;;5022054;28;20179;-90
2021/03/25 11:59:46;;;;;;;68.33;28.43;;;7.30;99.90;;;;;;5022817;28;20181;-92
2021/03/25 12:02:17;;;;;;;65.07;29.07;;;7.30;99.90;;;;;;5006216;28;20314;-93
2021/03/25 12:04:44;;;;;;;66.30;31.67;;;7.30;99.90;;;;;;5030875;28;20184;-92
2021/03/25 12:07:13;;;;;;;72.03;29.93;;;7.30;99.90;;;;;;5027118;28;20231;-91
2021/03/25 12:10:03;;;;;;;67.80;29.10;;;7.30;99.90;;;;;;5027275;28;20177;-92
2021/03/25 12:12:29;;;;;;;68.20;31.30;;;7.20;99.90;;;;;;5024145;28;20177;-87
2021/03/25 12:15:01;;;;;;;69.00;30.43;;;7.20;99.90;;;;;;5019684;28;20330;-93
2021/03/25 12:17:27;;;;;;;67.93;29.97;;;7.20;99.90;;;;;;5035433;28;20192;-90
2021/03/25 12:19:53;;;;;;;64.77;29.20;;;7.10;99.90;;;;;;5040116;28;20199;-93
2021/03/25 12:22:27;;;;;;;70.87;29.33;;;7.20;99.90;;;;;;5036098;28;20239;-91
2021/03/25 12:24:53;;;;;;;66.47;29.47;;;7.30;99.90;;;;;;5047845;28;20161;-92
2021/03/25 12:27:23;;;;;;;63.13;27.47;;;7.40;99.90;;;;;;5043524;28;20165;-90
2021/03/25 12:29:53;;;;;;;66.80;27.63;;;7.50;99.90;;;;;;5044822;28;20165;-91
2021/03/25 12:32:27;;;;;;;62.43;27.70;;;8.00;99.90;;;;;;5046881;28;20221;-90
2021/03/25 12:34:53;;;;;;;65.40;29.40;;;7.60;99.90;;;;;;5045995;28;20188;-90
2021/03/25 12:37:24;;;;;;;63.77;29.50;;;7.60;99.90;;;;;;5018803;28;20193;-90
2021/03/25 12:39:53;;;;;;;65.60;28.67;;;7.60;99.90;;;;;;5031789;28;20219;-91
2021/03/25 12:42:22;;;;;;;63.57;29.13;;;7.40;99.90;;;;;;5015449;28;20207;-92
2021/03/25 12:44:47;;;;;;;65.30;29.77;;;7.70;99.90;;;;;;5041512;28;20204;-87
2021/03/25 12:47:13;;;;;;;71.03;31.30;;;7.50;99.90;;;;;;5049877;28;20185;-87
2021/03/25 12:49:40;;;;;;;72.83;28.77;;;7.60;99.90;;;;;;5038036;28;20187;-90
2021/03/25 12:52:06;;;;;;;70.13;30.50;;;7.50;99.90;;;;;;5031986;28;20188;-90
2021/03/25 12:54:32;;;;;;;64.50;30.53;;;7.50;99.90;;;;;;5029461;28;20188;-88
2021/03/25 12:57:01;;;;;;;79.90;33.07;;;7.40;99.90;;;;;;5033240;28;20192;-88
2021/03/25 12:59:27;;;;;;;80.23;33.43;;;7.40;99.90;;;;;;5032194;28;20548;-88
2021/03/25 13:01:53;;;;;;;67.90;32.70;;;7.40;99.90;;;;;;5033868;28;20189;-92
2021/03/25 13:04:20;;;;;;;66.37;32.97;;;7.30;99.90;;;;;;5031991;28;20208;-91
2021/03/25 13:06:47;;;;;;;65.23;29.37;;;7.20;99.90;;;;;;5032382;28;20243;-89
2021/03/25 13:09:12;;;;;;;65.40;30.10;;;7.30;99.90;;;;;;5029491;28;20296;-93
2021/03/25 13:11:38;;;;;;;72.80;32.50;;;7.30;99.90;;;;;;5010521;28;20220;-91
2021/03/25 13:14:06;;;;;;;70.67;29.67;;;7.30;99.90;;;;;;5023920;28;20299;-95
2021/03/25 13:16:32;;;;;;;65.47;29.77;;;7.30;99.90;;;;;;5029450;28;20192;-93
2021/03/25 13:18:58;;;;;;;65.67;29.00;;;7.30;99.90;;;;;;5028271;28;20177;-87